createdAt,value
2022-11-06T00:01:21.745Z,19.88
2022-11-06T00:03:51.677Z,20.90
2022-11-06T00:06:40.072Z,17.88
2022-11-06T00:09:10.111Z,17.08
2022-11-06T00:11:42.056Z,19.30
2022-11-06T00:14:11.497Z,18.27
2022-11-06T00:16:40.361Z,17.83
2022-11-06T00:19:08.324Z,18.30
2022-11-06T00:21:45.329Z,18.30
2022-11-06T00:24:17.145Z,15.48
2022-11-06T00:26:54.204Z,15.77
2022-11-06T00:29:24.811Z,15.40
2022-11-06T00:31:55.434Z,14.98
2022-11-06T00:36:53.779Z,9.63
2022-11-06T00:39:20.631Z,12.48
2022-11-06T00:41:49.743Z,13.88
2022-11-06T00:44:16.615Z,13.93
2022-11-06T00:46:43.515Z,14.73
2022-11-06T00:49:10.334Z,14.20
2022-11-06T00:52:15.754Z,14.85
2022-11-06T00:54:42.738Z,12.13
2022-11-06T00:57:09.644Z,13.07
2022-11-06T00:59:36.525Z,14.75
2022-11-06T01:02:03.549Z,13.75
2022-11-06T01:04:30.470Z,13.80
2022-11-06T01:06:57.482Z,13.43
2022-11-06T01:09:27.380Z,13.88
2022-11-06T01:12:15.035Z,13.52
2022-11-06T01:14:43.160Z,12.32
2022-11-06T01:17:10.163Z,14.05
2022-11-06T01:19:37.206Z,13.60
2022-11-06T01:22:05.100Z,13.38
2022-11-06T01:24:32.022Z,12.50
2022-11-06T01:27:24.965Z,11.80
2022-11-06T01:29:46.083Z,10.75
2022-11-06T01:32:18.911Z,11.13
2022-11-06T01:34:46.879Z,11.27
2022-11-06T01:37:14.940Z,10.98
2022-11-06T01:39:42.590Z,11.85
2022-11-06T01:42:14.108Z,12.05
2022-11-06T01:44:43.853Z,11.48
2022-11-06T01:47:24.520Z,11.47
2022-11-06T01:52:25.561Z,5.78
2022-11-06T01:54:58.072Z,8.73
2022-11-06T01:57:26.200Z,9.57
2022-11-06T01:59:54.550Z,10.23
2022-11-06T02:02:21.783Z,10.23
2022-11-06T02:04:49.830Z,10.60
2022-11-06T02:07:18.824Z,9.18
2022-11-06T02:09:46.170Z,9.55
2022-11-06T03:10:11.224Z,4.80
2022-11-06T03:26:14.735Z,4.38
2022-11-06T03:29:14.440Z,5.50
2022-11-06T03:31:55.431Z,5.68
2022-11-06T03:34:50.029Z,6.85
2022-11-06T03:37:25.185Z,6.38
2022-11-06T03:39:55.509Z,7.13
2022-11-06T03:42:28.197Z,6.82
2022-11-06T03:45:00.180Z,6.53
2022-11-06T03:47:32.969Z,6.80
2022-11-06T03:50:13.703Z,7.38
2022-11-06T03:55:24.909Z,3.92
2022-11-06T03:58:01.623Z,6.00
2022-11-06T04:00:28.659Z,6.53
2022-11-06T04:03:05.211Z,6.75
2022-11-06T04:05:44.006Z,6.68
2022-11-06T04:08:30.632Z,7.10
2022-11-06T04:11:22.081Z,6.15
2022-11-06T04:13:58.560Z,6.60
2022-11-06T04:16:33.404Z,6.88
2022-11-06T04:19:00.606Z,6.68
2022-11-06T04:21:45.745Z,7.50
2022-11-06T04:24:52.685Z,7.00
2022-11-06T04:28:03.241Z,5.95
2022-11-06T04:30:43.364Z,5.15
2022-11-06T04:33:10.460Z,5.65
2022-11-06T04:36:02.001Z,6.65
2022-11-06T04:38:53.715Z,5.60
2022-11-06T04:41:56.005Z,5.82
2022-11-06T04:45:10.713Z,5.85
2022-11-06T04:47:38.726Z,5.25
2022-11-06T04:50:07.737Z,6.85
2022-11-06T04:52:38.219Z,7.05
2022-11-06T04:55:05.805Z,6.85
2022-11-06T04:57:32.661Z,7.32
2022-11-06T04:59:59.635Z,6.20
2022-11-06T05:02:26.741Z,6.22
2022-11-06T05:04:53.728Z,6.57
2022-11-06T05:07:20.656Z,7.25
2022-11-06T05:09:47.597Z,7.45
2022-11-06T05:12:15.566Z,7.65
2022-11-06T05:14:42.445Z,7.35
2022-11-06T05:17:09.458Z,6.70
2022-11-06T05:19:36.317Z,7.20
2022-11-06T05:22:23.697Z,7.35
2022-11-06T05:24:50.634Z,5.55
2022-11-06T05:27:17.565Z,6.43
2022-11-06T05:29:44.598Z,6.10
2022-11-06T05:32:13.521Z,6.40
2022-11-06T05:34:42.252Z,6.45
2022-11-06T05:37:09.115Z,7.53
2022-11-06T05:39:41.398Z,7.10
2022-11-06T05:42:10.018Z,7.45
2022-11-06T05:44:37.699Z,6.65
2022-11-06T05:47:04.574Z,6.18
2022-11-06T05:49:31.408Z,6.93
2022-11-06T05:51:59.406Z,6.53
2022-11-06T05:54:26.284Z,6.03
2022-11-06T05:56:53.132Z,6.63
2022-11-06T05:59:19.934Z,7.90
2022-11-06T06:01:48.067Z,7.78
2022-11-06T06:04:15.021Z,6.72
2022-11-06T06:06:42.281Z,7.20
2022-11-06T06:09:09.134Z,6.22
2022-11-06T06:11:36.248Z,6.72
2022-11-06T06:14:03.336Z,6.40
2022-11-06T06:16:30.476Z,6.47
2022-11-06T06:18:57.415Z,6.72
2022-11-06T06:21:44.192Z,7.65
2022-11-06T06:24:11.388Z,6.80
2022-11-06T06:26:38.304Z,7.20
2022-11-06T06:29:05.299Z,6.75
2022-11-06T06:31:33.337Z,6.90
2022-11-06T06:34:00.245Z,6.60
2022-11-06T06:36:27.175Z,6.70
2022-11-06T06:38:54.736Z,6.30
2022-11-06T06:41:22.020Z,6.20
2022-11-06T06:43:50.252Z,7.32
2022-11-06T06:46:17.902Z,7.90
2022-11-06T06:48:44.843Z,7.45
2022-11-06T06:51:13.865Z,6.97
2022-11-06T06:53:40.810Z,6.82
2022-11-06T06:56:08.008Z,6.03
2022-11-06T06:58:34.955Z,5.88
2022-11-06T07:01:04.592Z,5.63
2022-11-06T07:03:32.293Z,6.05
2022-11-06T07:05:59.632Z,6.18
2022-11-06T07:08:28.252Z,5.97
2022-11-06T07:11:08.728Z,6.70
2022-11-06T07:13:36.642Z,5.63
2022-11-06T07:16:06.640Z,5.82
2022-11-06T07:18:34.760Z,6.00
2022-11-06T07:21:05.103Z,5.82
2022-11-06T07:23:32.255Z,5.20
2022-11-06T07:25:59.094Z,5.20
2022-11-06T07:28:26.000Z,5.72
2022-11-06T07:31:02.131Z,6.32
2022-11-06T07:33:30.517Z,5.90
2022-11-06T07:36:03.721Z,6.65
2022-11-06T07:38:30.641Z,6.25
2022-11-06T07:41:07.357Z,5.88
2022-11-06T07:43:35.140Z,5.43
2022-11-06T07:46:03.949Z,6.10
2022-11-06T07:48:32.166Z,6.25
2022-11-06T07:51:06.086Z,5.47
2022-11-06T07:53:33.395Z,5.80
2022-11-06T07:56:00.649Z,6.15
2022-11-06T07:58:28.350Z,6.53
2022-11-06T08:00:57.995Z,5.85
2022-11-06T08:03:26.238Z,5.43
2022-11-06T08:05:53.113Z,5.55
2022-11-06T08:08:19.981Z,5.60
2022-11-06T08:10:47.975Z,5.10
2022-11-06T08:13:16.888Z,5.55
2022-11-06T08:15:44.768Z,5.65
2022-11-06T08:18:12.936Z,5.65
2022-11-06T08:20:41.219Z,6.05
2022-11-06T08:23:11.550Z,5.63
2022-11-06T08:25:38.920Z,5.60
2022-11-06T08:28:05.971Z,5.50
2022-11-06T08:30:33.874Z,5.75
2022-11-06T08:33:06.754Z,5.78
2022-11-06T08:35:37.134Z,4.93
2022-11-06T08:38:04.494Z,4.95
2022-11-06T08:40:32.421Z,5.05
2022-11-06T08:43:01.014Z,5.47
2022-11-06T08:45:28.536Z,5.07
2022-11-06T08:47:55.524Z,6.32
2022-11-06T08:50:22.466Z,7.13
2022-11-06T08:52:49.259Z,6.72
2022-11-06T08:55:16.217Z,6.10
2022-11-06T08:57:43.105Z,7.03
2022-11-06T09:00:11.928Z,6.32
2022-11-06T09:02:38.816Z,6.80
2022-11-06T09:05:06.146Z,6.38
2022-11-06T09:07:33.164Z,6.40
2022-11-06T09:10:00.007Z,6.40
2022-11-06T09:12:28.105Z,7.35
2022-11-06T09:14:55.385Z,8.98
2022-11-06T09:17:24.290Z,8.05
2022-11-06T09:19:51.933Z,9.65
2022-11-06T09:22:48.426Z,8.10
2022-11-06T09:25:15.809Z,6.93
2022-11-06T09:27:48.266Z,8.85
2022-11-06T09:30:18.038Z,8.73
2022-11-06T09:32:53.412Z,9.67
2022-11-06T09:38:15.533Z,5.65
2022-11-06T09:41:23.322Z,9.85
2022-11-06T09:44:20.307Z,9.40
2022-11-06T09:46:48.426Z,10.85
2022-11-06T09:49:40.259Z,11.60
2022-11-06T09:52:31.054Z,11.95
2022-11-06T09:55:06.255Z,12.45
2022-11-06T09:57:41.609Z,13.95
2022-11-06T10:00:14.016Z,14.23
2022-11-06T10:02:53.194Z,13.73
2022-11-06T10:05:38.178Z,13.63
2022-11-06T10:08:15.333Z,12.45
2022-11-06T10:11:15.701Z,12.35
2022-11-06T10:14:01.293Z,11.90
2022-11-06T10:16:55.931Z,12.75
2022-11-06T10:19:25.988Z,12.25
2022-11-06T10:22:15.920Z,14.52
2022-11-06T10:25:07.282Z,12.88
2022-11-06T10:27:42.312Z,11.63
2022-11-06T10:30:19.692Z,12.25
2022-11-06T10:33:14.840Z,13.25
2022-11-06T10:35:59.791Z,12.98
2022-11-06T10:38:34.810Z,13.18
2022-11-06T10:41:39.883Z,12.02
2022-11-06T10:44:19.782Z,10.88
2022-11-06T10:46:53.581Z,10.43
2022-11-06T10:49:32.987Z,12.00
2022-11-06T10:52:39.083Z,12.85
2022-11-06T10:55:21.413Z,10.88
2022-11-06T10:57:52.413Z,12.20
2022-11-06T11:00:21.548Z,14.32
2022-11-06T11:02:53.016Z,14.50
2022-11-06T11:05:22.379Z,14.55
2022-11-06T11:07:51.171Z,14.77
2022-11-06T11:10:32.956Z,15.25
2022-11-06T11:13:07.149Z,16.25
2022-11-06T11:15:46.037Z,14.77
2022-11-06T11:18:17.572Z,15.40
2022-11-06T11:20:50.436Z,15.93
2022-11-06T11:23:23.419Z,15.63
2022-11-06T11:25:58.363Z,14.93
2022-11-06T11:28:38.196Z,15.77
2022-11-06T11:31:08.521Z,16.57
2022-11-06T11:33:36.531Z,13.95
2022-11-06T11:36:06.859Z,13.35
2022-11-06T11:38:40.553Z,12.98
2022-11-06T11:41:25.126Z,12.02
2022-11-06T11:44:16.451Z,12.65
2022-11-06T11:47:04.550Z,13.02
2022-11-06T11:49:36.355Z,13.85
2022-11-06T11:52:05.030Z,16.08
2022-11-06T11:54:34.689Z,13.80
2022-11-06T11:57:17.823Z,12.75
2022-11-06T12:00:13.025Z,13.55
2022-11-06T12:02:46.867Z,15.98
2022-11-06T12:05:27.383Z,16.40
2022-11-06T12:07:57.985Z,16.45
2022-11-06T12:13:24.103Z,13.85
2022-11-06T12:16:18.504Z,15.18
2022-11-06T12:18:57.533Z,16.02
2022-11-06T12:21:35.473Z,16.25
2022-11-06T12:24:12.759Z,17.60
2022-11-06T12:27:03.223Z,16.90
2022-11-06T12:29:50.572Z,13.65
2022-11-06T12:33:14.824Z,15.15
2022-11-06T12:35:53.020Z,13.93
2022-11-06T12:38:19.920Z,14.50
2022-11-06T12:41:01.289Z,17.92
2022-11-06T12:43:58.384Z,16.67
2022-11-06T12:46:55.139Z,14.40
2022-11-06T12:50:23.610Z,14.35
2022-11-06T12:53:11.983Z,11.75
2022-11-06T12:56:11.250Z,11.65
2022-11-06T12:59:09.735Z,13.25
2022-11-06T13:02:19.805Z,11.73
2022-11-06T13:05:21.694Z,10.27
2022-11-06T13:08:44.945Z,10.27
2022-11-06T13:14:29.849Z,9.18
2022-11-06T13:17:26.969Z,11.50
2022-11-06T13:20:19.317Z,10.07
2022-11-06T13:22:56.996Z,9.35
2022-11-06T13:25:39.221Z,11.98
2022-11-06T13:28:15.626Z,11.05
2022-11-06T13:30:46.389Z,12.90
2022-11-06T13:36:14.246Z,5.55
2022-11-06T13:38:47.804Z,7.55
2022-11-06T13:41:27.475Z,7.40
2022-11-06T13:44:05.022Z,7.32
2022-11-06T13:46:43.872Z,7.63
2022-11-06T13:49:25.533Z,9.00
2022-11-06T13:51:57.974Z,8.02
2022-11-06T13:54:30.608Z,9.15
2022-11-06T13:57:24.101Z,12.63
2022-11-06T14:00:03.215Z,11.82
2022-11-06T14:02:41.773Z,15.23
2022-11-06T14:05:20.862Z,19.42
2022-11-06T14:07:49.505Z,19.25
2022-11-06T14:10:34.172Z,22.17
2022-11-06T14:13:02.833Z,22.67
2022-11-06T14:15:40.029Z,26.08
2022-11-06T14:18:13.505Z,22.35
2022-11-06T14:21:29.213Z,24.33
2022-11-06T14:24:16.849Z,21.40
2022-11-06T14:26:47.475Z,19.73
2022-11-06T14:29:27.029Z,18.50
2022-11-06T14:33:05.832Z,19.70
2022-11-06T14:35:36.428Z,14.35
2022-11-06T14:40:50.997Z,11.15
2022-11-06T14:43:28.604Z,15.13
2022-11-06T14:45:57.553Z,15.27
2022-11-06T14:48:45.482Z,15.32
2022-11-06T14:51:16.560Z,13.00
2022-11-06T14:53:53.066Z,14.40
2022-11-06T14:56:23.431Z,13.05
2022-11-06T14:58:57.465Z,12.15
2022-11-06T15:01:35.949Z,11.10
2022-11-06T15:04:14.803Z,11.55
2022-11-06T15:06:45.981Z,11.70
2022-11-06T15:09:45.539Z,11.88
2022-11-06T15:12:13.794Z,10.05
2022-11-06T15:14:41.056Z,11.60
2022-11-06T15:17:13.945Z,10.30
2022-11-06T15:19:56.517Z,10.73
2022-11-06T15:22:33.928Z,9.57
2022-11-06T15:25:24.215Z,11.00
2022-11-06T15:28:18.274Z,10.10
2022-11-06T15:30:50.302Z,9.18
2022-11-06T15:33:33.754Z,10.88
2022-11-06T15:36:07.970Z,9.15
2022-11-06T15:38:41.129Z,8.55
2022-11-06T15:41:17.969Z,9.38
2022-11-06T15:43:47.346Z,9.10
2022-11-06T15:46:30.030Z,8.93
2022-11-06T15:49:26.502Z,9.25
2022-11-06T15:52:07.015Z,7.88
2022-11-06T15:54:40.925Z,7.25
2022-11-06T15:57:29.346Z,7.45
2022-11-06T16:00:16.083Z,7.93
2022-11-06T16:03:05.178Z,7.45
2022-11-06T16:05:36.502Z,6.90
2022-11-06T16:08:06.331Z,7.18
2022-11-06T16:10:44.490Z,8.00
2022-11-06T16:13:13.835Z,7.05
2022-11-06T16:16:16.266Z,7.68
2022-11-06T16:18:46.095Z,6.00
2022-11-06T16:21:27.323Z,7.00
2022-11-06T16:24:15.521Z,6.43
2022-11-06T16:26:50.595Z,6.25
2022-11-06T16:29:24.320Z,6.32
2022-11-06T16:32:01.904Z,5.78
2022-11-06T16:34:31.485Z,6.45
2022-11-06T16:37:18.189Z,5.35
2022-11-06T16:39:53.076Z,5.38
2022-11-06T16:42:33.352Z,6.03
2022-11-06T16:45:20.697Z,5.20
2022-11-06T16:48:05.971Z,5.13
2022-11-06T16:50:43.933Z,5.10
2022-11-06T16:53:13.295Z,4.88
2022-11-06T16:55:42.195Z,5.03
2022-11-06T16:58:19.109Z,5.30
2022-11-06T17:00:46.240Z,4.75
2022-11-06T17:05:57.420Z,3.72
2022-11-06T17:08:30.128Z,4.55
2022-11-06T17:10:58.819Z,6.90
2022-11-06T17:13:33.611Z,8.60
2022-11-06T17:16:05.624Z,8.85
2022-11-06T17:18:35.648Z,9.73
2022-11-06T17:21:11.925Z,10.98
2022-11-06T17:23:39.667Z,10.45
2022-11-06T17:26:22.689Z,12.30
2022-11-06T17:28:49.699Z,11.18
2022-11-06T17:31:55.944Z,12.85
2022-11-06T17:34:22.801Z,11.95
2022-11-06T17:39:33.001Z,12.02
2022-11-06T17:42:07.564Z,13.25
2022-11-06T17:44:34.641Z,12.70
2022-11-06T17:47:01.540Z,13.05
2022-11-06T17:49:28.668Z,13.82
2022-11-06T17:51:59.953Z,12.05
2022-11-06T17:54:32.334Z,9.82
2022-11-06T17:57:01.341Z,9.55
2022-11-06T17:59:29.231Z,9.18
2022-11-06T18:01:57.766Z,8.57
2022-11-06T18:04:28.218Z,8.70
2022-11-06T18:06:55.223Z,8.40
2022-11-06T18:09:23.629Z,8.70
2022-11-06T18:11:53.028Z,9.25
2022-11-06T18:14:23.583Z,7.40
2022-11-06T18:19:21.418Z,5.15
2022-11-06T18:21:49.796Z,6.95
2022-11-06T18:24:16.920Z,8.52
2022-11-06T18:26:44.036Z,8.98
2022-11-06T18:29:12.294Z,8.63
2022-11-06T18:31:39.328Z,8.57
2022-11-06T18:34:06.281Z,9.35
2022-11-06T18:36:35.788Z,9.75
2022-11-06T18:39:04.407Z,9.60
2022-11-06T18:41:32.608Z,10.05
2022-11-06T18:43:59.597Z,10.45
2022-11-06T18:46:28.133Z,11.20
2022-11-06T18:48:55.909Z,10.20
2022-11-06T18:51:35.090Z,11.35
2022-11-06T18:54:06.452Z,9.57
2022-11-06T18:56:35.904Z,9.95
2022-11-06T18:59:19.529Z,11.23
2022-11-06T19:01:47.285Z,11.50
2022-11-06T19:04:14.715Z,12.13
2022-11-06T19:06:43.298Z,13.20
2022-11-06T19:09:10.568Z,15.05
2022-11-06T19:11:38.336Z,16.70
2022-11-06T19:14:08.490Z,17.83
2022-11-06T19:16:35.848Z,18.38
2022-11-06T19:19:07.185Z,19.10
2022-11-06T19:21:37.453Z,20.15
2022-11-06T19:24:05.622Z,20.80
2022-11-06T19:26:35.256Z,21.00
2022-11-06T19:29:03.087Z,20.30
2022-11-06T19:31:32.564Z,22.50
2022-11-06T19:34:03.804Z,22.27
2022-11-06T19:36:31.537Z,22.27
2022-11-06T19:38:59.793Z,20.77
2022-11-06T19:41:33.085Z,22.23
2022-11-06T19:44:00.061Z,22.60
2022-11-06T19:46:33.838Z,23.17
2022-11-06T19:49:06.681Z,24.35
2022-11-06T19:51:55.312Z,24.98
2022-11-06T19:54:22.171Z,23.45
2022-11-06T19:57:27.012Z,23.83
2022-11-06T19:59:37.525Z,25.70
2022-11-06T20:02:04.644Z,24.98
2022-11-06T20:04:31.663Z,24.75
2022-11-06T20:06:58.477Z,23.70
2022-11-06T20:09:25.487Z,24.15
2022-11-06T20:11:52.661Z,23.30
2022-11-06T20:14:21.793Z,25.25
2022-11-06T20:16:49.905Z,23.67
2022-11-06T20:19:16.932Z,22.70
2022-11-06T20:21:43.889Z,22.88
2022-11-06T20:24:11.459Z,22.80
2022-11-06T20:26:38.799Z,21.85
2022-11-06T20:29:05.898Z,21.58
2022-11-06T20:31:33.448Z,22.60
2022-11-06T20:34:00.458Z,21.17
2022-11-06T20:36:30.558Z,22.75
2022-11-06T20:38:59.820Z,22.52
2022-11-06T20:41:30.121Z,20.92
2022-11-06T20:43:59.412Z,21.70
2022-11-06T20:46:26.937Z,21.25
2022-11-06T20:48:53.994Z,20.38
2022-11-06T20:51:27.778Z,21.25
2022-11-06T20:53:55.333Z,21.10
2022-11-06T20:56:25.444Z,20.60
2022-11-06T20:59:31.039Z,21.27
2022-11-06T21:01:58.625Z,18.60
2022-11-06T21:04:25.645Z,19.65
2022-11-06T21:06:52.573Z,19.80
2022-11-06T21:09:20.996Z,21.42
2022-11-06T21:11:49.972Z,20.52
2022-11-06T21:14:20.318Z,20.25
2022-11-06T21:16:47.501Z,20.75
2022-11-06T21:19:16.457Z,21.75
2022-11-06T21:21:44.450Z,22.65
2022-11-06T21:24:12.608Z,20.33
2022-11-06T21:26:39.941Z,21.92
2022-11-06T21:29:10.767Z,21.83
2022-11-06T21:31:47.451Z,20.20
2022-11-06T21:34:17.593Z,20.35
2022-11-06T21:36:45.637Z,21.13
2022-11-06T21:39:15.779Z,21.58
2022-11-06T21:41:44.958Z,20.70
2022-11-06T21:44:15.181Z,19.65
2022-11-06T21:46:45.562Z,19.75
2022-11-06T21:49:14.313Z,21.88
2022-11-06T21:51:42.352Z,21.63
2022-11-06T21:54:30.428Z,20.35
2022-11-06T21:56:57.466Z,19.23
2022-11-06T21:59:26.677Z,20.77
2022-11-06T22:01:53.930Z,19.98
2022-11-06T22:04:21.130Z,17.80
2022-11-06T22:06:48.279Z,15.70
2022-11-06T22:09:25.274Z,13.90
2022-11-06T22:11:52.897Z,14.10
2022-11-06T22:14:20.692Z,12.38
2022-11-06T22:16:47.709Z,14.45
2022-11-06T22:19:16.524Z,14.27
2022-11-06T22:21:43.678Z,13.63
2022-11-06T22:24:12.622Z,15.02
2022-11-06T22:26:40.550Z,14.10
2022-11-06T22:29:11.657Z,12.70
2022-11-06T22:31:39.993Z,14.27
2022-11-06T22:34:06.822Z,14.88
2022-11-06T22:36:36.614Z,14.82
2022-11-06T22:39:06.039Z,14.98
2022-11-06T22:41:33.596Z,15.57
2022-11-06T22:44:01.144Z,15.93
2022-11-06T22:46:28.972Z,15.05
2022-11-06T22:48:56.978Z,15.98
2022-11-06T22:51:27.137Z,17.15
2022-11-06T22:53:57.790Z,16.73
2022-11-06T22:58:54.512Z,14.88
2022-11-06T23:01:24.850Z,16.88
2022-11-06T23:03:56.710Z,16.60
2022-11-06T23:06:26.552Z,17.98
2022-11-06T23:08:53.969Z,18.25
2022-11-06T23:11:23.415Z,18.67
2022-11-06T23:13:50.663Z,17.85
2022-11-06T23:16:44.288Z,17.83
2022-11-06T23:19:15.767Z,16.38
2022-11-06T23:21:43.947Z,17.58
2022-11-06T23:24:11.619Z,17.73
2022-11-06T23:26:39.679Z,17.45
2022-11-06T23:29:06.577Z,18.10
2022-11-06T23:31:35.494Z,17.95
2022-11-06T23:34:02.508Z,17.23
2022-11-06T23:36:29.781Z,17.05
2022-11-06T23:38:56.912Z,16.55
2022-11-06T23:41:42.862Z,16.40
2022-11-06T23:44:32.436Z,15.73
2022-11-06T23:47:00.179Z,14.93
2022-11-06T23:49:27.227Z,17.83
2022-11-06T23:51:54.450Z,16.10
2022-11-06T23:54:21.346Z,17.27
2022-11-06T23:56:48.392Z,16.33
2022-11-06T23:59:15.357Z,17.40
